sensor_id;sensor_type;location;lat;lon;timestamp;P1;durP1;ratioP1;P2;durP2;ratioP2
36205;SDS011;22242;48.796;9.930;2022-12-07T00:01:24;12.27;;;8.65;;
36205;SDS011;22242;48.796;9.930;2022-12-07T00:03:52;11.80;;;8.82;;
36205;SDS011;22242;48.796;9.930;2022-12-07T00:06:22;10.48;;;8.38;;
36205;SDS011;22242;48.796;9.930;2022-12-07T00:08:50;11.35;;;9.05;;
36205;SDS011;22242;48.796;9.930;2022-12-07T00:11:18;11.55;;;8.70;;
36205;SDS011;22242;48.796;9.930;2022-12-07T00:13:46;12.38;;;9.50;;
36205;SDS011;22242;48.796;9.930;2022-12-07T00:16:14;13.80;;;9.13;;
36205;SDS011;22242;48.796;9.930;2022-12-07T00:18:43;11.38;;;8.57;;
36205;SDS011;22242;48.796;9.930;2022-12-07T00:21:11;14.68;;;9.32;;
36205;SDS011;22242;48.796;9.930;2022-12-07T00:23:39;12.20;;;8.93;;
36205;SDS011;22242;48.796;9.930;2022-12-07T00:26:09;12.43;;;8.85;;
36205;SDS011;22242;48.796;9.930;2022-12-07T00:28:37;11.20;;;8.25;;
36205;SDS011;22242;48.796;9.930;2022-12-07T00:31:06;12.75;;;9.05;;
36205;SDS011;22242;48.796;9.930;2022-12-07T00:33:34;11.40;;;8.38;;
36205;SDS011;22242;48.796;9.930;2022-12-07T00:36:02;11.77;;;8.30;;
36205;SDS011;22242;48.796;9.930;2022-12-07T00:38:32;10.48;;;7.90;;
36205;SDS011;22242;48.796;9.930;2022-12-07T00:41:01;12.85;;;9.02;;
36205;SDS011;22242;48.796;9.930;2022-12-07T00:43:31;11.10;;;8.70;;
36205;SDS011;22242;48.796;9.930;2022-12-07T00:45:58;13.75;;;8.77;;
36205;SDS011;22242;48.796;9.930;2022-12-07T00:48:25;11.80;;;8.88;;
36205;SDS011;22242;48.796;9.930;2022-12-07T00:50:52;13.48;;;9.75;;
36205;SDS011;22242;48.796;9.930;2022-12-07T00:53:19;15.32;;;9.68;;
36205;SDS011;22242;48.796;9.930;2022-12-07T00:55:46;15.80;;;9.98;;
36205;SDS011;22242;48.796;9.930;2022-12-07T00:58:13;14.10;;;9.85;;
36205;SDS011;22242;48.796;9.930;2022-12-07T01:00:42;15.15;;;10.77;;
36205;SDS011;22242;48.796;9.930;2022-12-07T01:03:10;14.63;;;9.68;;
36205;SDS011;22242;48.796;9.930;2022-12-07T01:05:38;15.23;;;10.18;;
36205;SDS011;22242;48.796;9.930;2022-12-07T01:08:05;13.82;;;10.02;;
36205;SDS011;22242;48.796;9.930;2022-12-07T01:10:32;14.02;;;9.70;;
36205;SDS011;22242;48.796;9.930;2022-12-07T01:12:59;14.90;;;9.93;;
36205;SDS011;22242;48.796;9.930;2022-12-07T01:15:26;14.73;;;8.88;;
36205;SDS011;22242;48.796;9.930;2022-12-07T01:17:54;13.35;;;9.15;;
36205;SDS011;22242;48.796;9.930;2022-12-07T01:20:21;13.32;;;9.45;;
36205;SDS011;22242;48.796;9.930;2022-12-07T01:22:48;13.52;;;9.43;;
36205;SDS011;22242;48.796;9.930;2022-12-07T01:25:15;16.05;;;9.65;;
36205;SDS011;22242;48.796;9.930;2022-12-07T01:27:42;12.73;;;9.27;;
36205;SDS011;22242;48.796;9.930;2022-12-07T01:30:09;12.95;;;9.00;;
36205;SDS011;22242;48.796;9.930;2022-12-07T01:32:37;14.77;;;9.73;;
36205;SDS011;22242;48.796;9.930;2022-12-07T01:35:06;16.52;;;11.00;;
36205;SDS011;22242;48.796;9.930;2022-12-07T01:37:34;12.00;;;8.70;;
36205;SDS011;22242;48.796;9.930;2022-12-07T01:40:02;13.40;;;9.70;;
36205;SDS011;22242;48.796;9.930;2022-12-07T01:42:29;35.15;;;14.77;;
36205;SDS011;22242;48.796;9.930;2022-12-07T01:48:02;14.40;;;9.10;;
36205;SDS011;22242;48.796;9.930;2022-12-07T01:50:32;13.48;;;9.02;;
36205;SDS011;22242;48.796;9.930;2022-12-07T01:53:01;13.60;;;9.02;;
36205;SDS011;22242;48.796;9.930;2022-12-07T01:55:31;14.40;;;9.40;;
36205;SDS011;22242;48.796;9.930;2022-12-07T01:57:59;14.93;;;9.82;;
36205;SDS011;22242;48.796;9.930;2022-12-07T02:00:26;13.40;;;9.73;;
36205;SDS011;22242;48.796;9.930;2022-12-07T02:02:54;11.38;;;9.20;;
36205;SDS011;22242;48.796;9.930;2022-12-07T02:05:25;14.57;;;8.98;;
36205;SDS011;22242;48.796;9.930;2022-12-07T02:07:55;13.35;;;10.02;;
36205;SDS011;22242;48.796;9.930;2022-12-07T02:10:28;14.25;;;9.95;;
36205;SDS011;22242;48.796;9.930;2022-12-07T02:12:57;15.15;;;8.90;;
36205;SDS011;22242;48.796;9.930;2022-12-07T02:15:28;13.45;;;10.05;;
36205;SDS011;22242;48.796;9.930;2022-12-07T02:18:01;15.50;;;10.30;;
36205;SDS011;22242;48.796;9.930;2022-12-07T02:20:33;16.75;;;10.25;;
36205;SDS011;22242;48.796;9.930;2022-12-07T02:26:22;19.88;;;11.50;;
36205;SDS011;22242;48.796;9.930;2022-12-07T02:29:11;14.52;;;10.25;;
36205;SDS011;22242;48.796;9.930;2022-12-07T02:31:44;15.00;;;10.70;;
36205;SDS011;22242;48.796;9.930;2022-12-07T02:36:49;15.07;;;10.68;;
36205;SDS011;22242;48.796;9.930;2022-12-07T02:39:22;18.88;;;11.25;;
36205;SDS011;22242;48.796;9.930;2022-12-07T02:41:54;15.80;;;11.05;;
36205;SDS011;22242;48.796;9.930;2022-12-07T02:44:27;17.63;;;11.20;;
36205;SDS011;22242;48.796;9.930;2022-12-07T02:46:55;17.35;;;11.40;;
36205;SDS011;22242;48.796;9.930;2022-12-07T02:49:24;16.85;;;11.07;;
36205;SDS011;22242;48.796;9.930;2022-12-07T02:51:53;17.27;;;11.55;;
36205;SDS011;22242;48.796;9.930;2022-12-07T02:54:20;16.85;;;11.23;;
36205;SDS011;22242;48.796;9.930;2022-12-07T02:56:48;18.95;;;11.88;;
36205;SDS011;22242;48.796;9.930;2022-12-07T02:59:22;19.98;;;11.95;;
36205;SDS011;22242;48.796;9.930;2022-12-07T03:02:00;17.38;;;12.13;;
36205;SDS011;22242;48.796;9.930;2022-12-07T03:04:40;17.75;;;11.55;;
36205;SDS011;22242;48.796;9.930;2022-12-07T03:07:14;16.38;;;10.70;;
36205;SDS011;22242;48.796;9.930;2022-12-07T03:09:51;19.27;;;12.98;;
36205;SDS011;22242;48.796;9.930;2022-12-07T03:12:27;19.92;;;12.25;;
36205;SDS011;22242;48.796;9.930;2022-12-07T03:15:01;18.27;;;11.45;;
36205;SDS011;22242;48.796;9.930;2022-12-07T03:17:33;18.88;;;12.23;;
36205;SDS011;22242;48.796;9.930;2022-12-07T03:20:05;19.15;;;12.57;;
36205;SDS011;22242;48.796;9.930;2022-12-07T03:22:35;20.92;;;13.13;;
36205;SDS011;22242;48.796;9.930;2022-12-07T03:25:07;18.00;;;12.10;;
36205;SDS011;22242;48.796;9.930;2022-12-07T03:27:37;18.38;;;12.35;;
36205;SDS011;22242;48.796;9.930;2022-12-07T03:30:09;17.80;;;11.52;;
36205;SDS011;22242;48.796;9.930;2022-12-07T03:32:39;18.33;;;12.23;;
36205;SDS011;22242;48.796;9.930;2022-12-07T03:35:10;17.25;;;12.38;;
36205;SDS011;22242;48.796;9.930;2022-12-07T03:37:42;16.92;;;11.02;;
36205;SDS011;22242;48.796;9.930;2022-12-07T03:40:15;16.95;;;12.02;;
36205;SDS011;22242;48.796;9.930;2022-12-07T03:42:48;19.70;;;12.43;;
36205;SDS011;22242;48.796;9.930;2022-12-07T03:45:17;17.55;;;11.65;;
36205;SDS011;22242;48.796;9.930;2022-12-07T03:47:47;19.63;;;13.45;;
36205;SDS011;22242;48.796;9.930;2022-12-07T03:50:20;19.92;;;12.52;;
36205;SDS011;22242;48.796;9.930;2022-12-07T03:52:53;18.40;;;12.07;;
36205;SDS011;22242;48.796;9.930;2022-12-07T03:55:23;21.30;;;13.57;;
36205;SDS011;22242;48.796;9.930;2022-12-07T03:57:55;22.40;;;13.82;;
36205;SDS011;22242;48.796;9.930;2022-12-07T04:00:27;23.65;;;13.35;;
36205;SDS011;22242;48.796;9.930;2022-12-07T04:02:54;21.75;;;13.60;;
36205;SDS011;22242;48.796;9.930;2022-12-07T04:05:22;20.98;;;13.50;;
36205;SDS011;22242;48.796;9.930;2022-12-07T04:07:49;22.38;;;14.20;;
36205;SDS011;22242;48.796;9.930;2022-12-07T04:10:16;21.45;;;13.82;;
36205;SDS011;22242;48.796;9.930;2022-12-07T04:12:43;22.10;;;14.55;;
36205;SDS011;22242;48.796;9.930;2022-12-07T04:15:10;22.08;;;12.68;;
36205;SDS011;22242;48.796;9.930;2022-12-07T04:17:39;19.33;;;12.25;;
36205;SDS011;22242;48.796;9.930;2022-12-07T04:20:07;22.00;;;12.75;;
36205;SDS011;22242;48.796;9.930;2022-12-07T04:22:34;19.98;;;12.88;;
36205;SDS011;22242;48.796;9.930;2022-12-07T04:25:01;19.90;;;12.98;;
36205;SDS011;22242;48.796;9.930;2022-12-07T04:27:29;22.88;;;12.57;;
36205;SDS011;22242;48.796;9.930;2022-12-07T04:29:55;23.17;;;12.98;;
36205;SDS011;22242;48.796;9.930;2022-12-07T04:32:22;23.38;;;13.95;;
36205;SDS011;22242;48.796;9.930;2022-12-07T04:34:51;24.45;;;13.68;;
36205;SDS011;22242;48.796;9.930;2022-12-07T04:37:18;20.35;;;12.50;;
36205;SDS011;22242;48.796;9.930;2022-12-07T04:39:44;23.85;;;13.70;;
36205;SDS011;22242;48.796;9.930;2022-12-07T04:42:11;23.27;;;13.80;;
36205;SDS011;22242;48.796;9.930;2022-12-07T04:44:39;21.85;;;12.57;;
36205;SDS011;22242;48.796;9.930;2022-12-07T04:47:06;23.90;;;13.25;;
36205;SDS011;22242;48.796;9.930;2022-12-07T04:49:33;20.58;;;12.32;;
36205;SDS011;22242;48.796;9.930;2022-12-07T04:52:01;23.05;;;13.38;;
36205;SDS011;22242;48.796;9.930;2022-12-07T04:54:28;22.50;;;13.32;;
36205;SDS011;22242;48.796;9.930;2022-12-07T04:56:55;19.23;;;11.48;;
36205;SDS011;22242;48.796;9.930;2022-12-07T04:59:22;20.30;;;12.15;;
36205;SDS011;22242;48.796;9.930;2022-12-07T05:01:48;19.65;;;11.30;;
36205;SDS011;22242;48.796;9.930;2022-12-07T05:04:15;21.55;;;12.25;;
36205;SDS011;22242;48.796;9.930;2022-12-07T05:06:43;19.48;;;12.45;;
36205;SDS011;22242;48.796;9.930;2022-12-07T05:09:12;20.52;;;12.07;;
36205;SDS011;22242;48.796;9.930;2022-12-07T05:11:38;20.30;;;12.43;;
36205;SDS011;22242;48.796;9.930;2022-12-07T05:14:06;21.08;;;10.82;;
36205;SDS011;22242;48.796;9.930;2022-12-07T05:16:36;16.90;;;10.48;;
36205;SDS011;22242;48.796;9.930;2022-12-07T05:19:03;17.13;;;10.45;;
36205;SDS011;22242;48.796;9.930;2022-12-07T05:21:30;18.20;;;10.27;;
36205;SDS011;22242;48.796;9.930;2022-12-07T05:23:57;17.30;;;10.73;;
36205;SDS011;22242;48.796;9.930;2022-12-07T05:26:25;17.95;;;10.85;;
36205;SDS011;22242;48.796;9.930;2022-12-07T05:28:52;19.90;;;10.50;;
36205;SDS011;22242;48.796;9.930;2022-12-07T05:31:20;17.20;;;10.77;;
36205;SDS011;22242;48.796;9.930;2022-12-07T05:33:48;17.52;;;10.88;;
36205;SDS011;22242;48.796;9.930;2022-12-07T05:36:14;15.38;;;9.50;;
36205;SDS011;22242;48.796;9.930;2022-12-07T05:38:41;15.07;;;9.25;;
36205;SDS011;22242;48.796;9.930;2022-12-07T05:41:08;18.27;;;10.15;;
36205;SDS011;22242;48.796;9.930;2022-12-07T05:43:55;16.15;;;9.27;;
36205;SDS011;22242;48.796;9.930;2022-12-07T05:46:22;25.23;;;13.73;;
36205;SDS011;22242;48.796;9.930;2022-12-07T05:48:49;23.52;;;13.60;;
36205;SDS011;22242;48.796;9.930;2022-12-07T05:51:16;17.85;;;10.98;;
36205;SDS011;22242;48.796;9.930;2022-12-07T05:53:43;17.67;;;10.77;;
36205;SDS011;22242;48.796;9.930;2022-12-07T05:56:11;19.02;;;10.80;;
36205;SDS011;22242;48.796;9.930;2022-12-07T05:58:37;15.90;;;9.90;;
36205;SDS011;22242;48.796;9.930;2022-12-07T06:01:23;15.30;;;9.23;;
36205;SDS011;22242;48.796;9.930;2022-12-07T06:03:50;14.43;;;8.48;;
36205;SDS011;22242;48.796;9.930;2022-12-07T06:06:17;13.77;;;8.68;;
36205;SDS011;22242;48.796;9.930;2022-12-07T06:08:44;12.90;;;8.32;;
36205;SDS011;22242;48.796;9.930;2022-12-07T06:11:11;16.65;;;8.27;;
36205;SDS011;22242;48.796;9.930;2022-12-07T06:13:55;12.38;;;8.20;;
36205;SDS011;22242;48.796;9.930;2022-12-07T06:16:23;15.45;;;9.70;;
36205;SDS011;22242;48.796;9.930;2022-12-07T06:18:50;19.20;;;10.75;;
36205;SDS011;22242;48.796;9.930;2022-12-07T06:21:17;20.02;;;11.93;;
36205;SDS011;22242;48.796;9.930;2022-12-07T06:23:44;20.35;;;12.02;;
36205;SDS011;22242;48.796;9.930;2022-12-07T06:26:12;23.63;;;13.82;;
36205;SDS011;22242;48.796;9.930;2022-12-07T06:28:39;22.60;;;12.75;;
36205;SDS011;22242;48.796;9.930;2022-12-07T06:31:06;23.75;;;13.82;;
36205;SDS011;22242;48.796;9.930;2022-12-07T06:33:35;27.50;;;15.68;;
36205;SDS011;22242;48.796;9.930;2022-12-07T06:36:02;27.10;;;15.88;;
36205;SDS011;22242;48.796;9.930;2022-12-07T06:38:29;26.88;;;14.75;;
36205;SDS011;22242;48.796;9.930;2022-12-07T06:40:56;28.55;;;14.82;;
36205;SDS011;22242;48.796;9.930;2022-12-07T06:43:23;31.23;;;13.50;;
36205;SDS011;22242;48.796;9.930;2022-12-07T06:45:50;24.88;;;14.98;;
36205;SDS011;22242;48.796;9.930;2022-12-07T06:48:17;30.67;;;15.02;;
36205;SDS011;22242;48.796;9.930;2022-12-07T06:50:45;28.08;;;14.65;;
36205;SDS011;22242;48.796;9.930;2022-12-07T06:53:12;27.00;;;14.65;;
36205;SDS011;22242;48.796;9.930;2022-12-07T06:55:39;27.50;;;14.35;;
36205;SDS011;22242;48.796;9.930;2022-12-07T06:58:06;23.60;;;13.75;;
36205;SDS011;22242;48.796;9.930;2022-12-07T07:00:33;25.55;;;14.63;;
36205;SDS011;22242;48.796;9.930;2022-12-07T07:03:00;26.23;;;14.18;;
36205;SDS011;22242;48.796;9.930;2022-12-07T07:05:27;23.98;;;14.45;;
36205;SDS011;22242;48.796;9.930;2022-12-07T07:07:56;24.55;;;14.35;;
36205;SDS011;22242;48.796;9.930;2022-12-07T07:10:22;24.10;;;14.98;;
36205;SDS011;22242;48.796;9.930;2022-12-07T07:12:49;24.80;;;14.52;;
36205;SDS011;22242;48.796;9.930;2022-12-07T07:15:16;24.90;;;14.25;;
36205;SDS011;22242;48.796;9.930;2022-12-07T07:17:43;26.83;;;15.38;;
36205;SDS011;22242;48.796;9.930;2022-12-07T07:20:10;25.65;;;14.40;;
36205;SDS011;22242;48.796;9.930;2022-12-07T07:22:38;25.80;;;15.15;;
36205;SDS011;22242;48.796;9.930;2022-12-07T07:25:06;26.42;;;15.23;;
36205;SDS011;22242;48.796;9.930;2022-12-07T07:27:33;29.23;;;14.55;;
36205;SDS011;22242;48.796;9.930;2022-12-07T07:30:00;23.88;;;13.90;;
36205;SDS011;22242;48.796;9.930;2022-12-07T07:32:27;24.90;;;14.27;;
36205;SDS011;22242;48.796;9.930;2022-12-07T07:34:54;24.50;;;13.55;;
36205;SDS011;22242;48.796;9.930;2022-12-07T07:37:20;23.73;;;13.68;;
36205;SDS011;22242;48.796;9.930;2022-12-07T07:39:48;22.13;;;12.93;;
36205;SDS011;22242;48.796;9.930;2022-12-07T07:42:16;22.63;;;13.02;;
36205;SDS011;22242;48.796;9.930;2022-12-07T07:44:43;23.13;;;13.57;;
36205;SDS011;22242;48.796;9.930;2022-12-07T07:47:10;26.65;;;13.75;;
36205;SDS011;22242;48.796;9.930;2022-12-07T07:49:37;23.45;;;14.80;;
36205;SDS011;22242;48.796;9.930;2022-12-07T07:52:04;23.17;;;12.80;;
36205;SDS011;22242;48.796;9.930;2022-12-07T07:54:32;22.52;;;13.00;;
36205;SDS011;22242;48.796;9.930;2022-12-07T07:56:58;22.83;;;12.07;;
36205;SDS011;22242;48.796;9.930;2022-12-07T07:59:27;20.75;;;11.25;;
36205;SDS011;22242;48.796;9.930;2022-12-07T08:01:54;19.52;;;11.00;;
36205;SDS011;22242;48.796;9.930;2022-12-07T08:04:21;18.77;;;10.38;;
36205;SDS011;22242;48.796;9.930;2022-12-07T08:06:47;14.35;;;9.05;;
36205;SDS011;22242;48.796;9.930;2022-12-07T08:09:14;13.20;;;8.40;;
36205;SDS011;22242;48.796;9.930;2022-12-07T08:11:41;14.20;;;8.73;;
36205;SDS011;22242;48.796;9.930;2022-12-07T08:14:09;12.30;;;8.05;;
36205;SDS011;22242;48.796;9.930;2022-12-07T08:16:38;12.23;;;7.38;;
36205;SDS011;22242;48.796;9.930;2022-12-07T08:19:05;14.00;;;7.97;;
36205;SDS011;22242;48.796;9.930;2022-12-07T08:21:32;12.75;;;7.78;;
36205;SDS011;22242;48.796;9.930;2022-12-07T08:23:58;10.50;;;7.03;;
36205;SDS011;22242;48.796;9.930;2022-12-07T08:26:25;11.90;;;7.03;;
36205;SDS011;22242;48.796;9.930;2022-12-07T08:28:52;12.32;;;7.15;;
36205;SDS011;22242;48.796;9.930;2022-12-07T08:31:19;10.73;;;6.63;;
36205;SDS011;22242;48.796;9.930;2022-12-07T08:33:48;10.82;;;6.55;;
36205;SDS011;22242;48.796;9.930;2022-12-07T08:36:17;13.40;;;6.65;;
36205;SDS011;22242;48.796;9.930;2022-12-07T08:38:44;10.85;;;6.38;;
36205;SDS011;22242;48.796;9.930;2022-12-07T08:41:11;9.68;;;5.97;;
36205;SDS011;22242;48.796;9.930;2022-12-07T08:43:38;8.40;;;6.13;;
36205;SDS011;22242;48.796;9.930;2022-12-07T08:46:06;10.27;;;6.03;;
36205;SDS011;22242;48.796;9.930;2022-12-07T08:48:36;9.32;;;5.93;;
36205;SDS011;22242;48.796;9.930;2022-12-07T08:51:07;8.15;;;5.60;;
36205;SDS011;22242;48.796;9.930;2022-12-07T08:53:34;8.55;;;5.63;;
36205;SDS011;22242;48.796;9.930;2022-12-07T08:56:03;8.02;;;5.43;;
36205;SDS011;22242;48.796;9.930;2022-12-07T08:58:31;7.32;;;4.82;;
36205;SDS011;22242;48.796;9.930;2022-12-07T09:00:58;8.43;;;5.85;;
36205;SDS011;22242;48.796;9.930;2022-12-07T09:03:25;9.30;;;6.43;;
36205;SDS011;22242;48.796;9.930;2022-12-07T09:05:52;11.98;;;7.07;;
36205;SDS011;22242;48.796;9.930;2022-12-07T09:08:20;10.40;;;5.80;;
36205;SDS011;22242;48.796;9.930;2022-12-07T09:10:48;9.32;;;6.00;;
36205;SDS011;22242;48.796;9.930;2022-12-07T09:13:15;12.38;;;6.05;;
36205;SDS011;22242;48.796;9.930;2022-12-07T09:15:42;10.00;;;7.05;;
36205;SDS011;22242;48.796;9.930;2022-12-07T09:18:09;8.18;;;5.05;;
36205;SDS011;22242;48.796;9.930;2022-12-07T09:20:36;8.27;;;5.47;;
36205;SDS011;22242;48.796;9.930;2022-12-07T09:23:04;8.27;;;5.15;;
36205;SDS011;22242;48.796;9.930;2022-12-07T09:25:33;8.82;;;5.68;;
36205;SDS011;22242;48.796;9.930;2022-12-07T09:28:00;9.93;;;6.07;;
36205;SDS011;22242;48.796;9.930;2022-12-07T09:30:28;9.32;;;6.35;;
36205;SDS011;22242;48.796;9.930;2022-12-07T09:32:55;10.07;;;5.90;;
36205;SDS011;22242;48.796;9.930;2022-12-07T09:35:23;8.85;;;6.15;;
36205;SDS011;22242;48.796;9.930;2022-12-07T09:37:50;8.93;;;6.55;;
36205;SDS011;22242;48.796;9.930;2022-12-07T09:40:18;9.82;;;6.43;;
36205;SDS011;22242;48.796;9.930;2022-12-07T09:42:49;8.02;;;5.40;;
36205;SDS011;22242;48.796;9.930;2022-12-07T09:45:19;10.25;;;6.78;;
36205;SDS011;22242;48.796;9.930;2022-12-07T09:47:48;10.63;;;6.38;;
36205;SDS011;22242;48.796;9.930;2022-12-07T09:50:18;10.77;;;6.28;;
36205;SDS011;22242;48.796;9.930;2022-12-07T09:52:47;8.88;;;5.47;;
36205;SDS011;22242;48.796;9.930;2022-12-07T09:55:16;9.23;;;6.70;;
36205;SDS011;22242;48.796;9.930;2022-12-07T09:57:50;8.80;;;6.85;;
36205;SDS011;22242;48.796;9.930;2022-12-07T10:00:19;10.05;;;6.35;;
36205;SDS011;22242;48.796;9.930;2022-12-07T10:02:50;8.43;;;5.80;;
36205;SDS011;22242;48.796;9.930;2022-12-07T10:05:22;9.68;;;5.85;;
36205;SDS011;22242;48.796;9.930;2022-12-07T10:07:52;7.90;;;5.78;;
36205;SDS011;22242;48.796;9.930;2022-12-07T10:10:19;8.65;;;5.90;;
36205;SDS011;22242;48.796;9.930;2022-12-07T10:12:55;8.98;;;5.75;;
36205;SDS011;22242;48.796;9.930;2022-12-07T10:15:37;8.55;;;5.45;;
36205;SDS011;22242;48.796;9.930;2022-12-07T10:18:17;9.50;;;6.25;;
36205;SDS011;22242;48.796;9.930;2022-12-07T10:20:46;8.80;;;5.32;;
36205;SDS011;22242;48.796;9.930;2022-12-07T10:23:14;11.40;;;5.78;;
36205;SDS011;22242;48.796;9.930;2022-12-07T10:25:42;10.25;;;6.05;;
36205;SDS011;22242;48.796;9.930;2022-12-07T10:28:12;9.02;;;6.13;;
36205;SDS011;22242;48.796;9.930;2022-12-07T10:33:49;9.93;;;6.82;;
36205;SDS011;22242;48.796;9.930;2022-12-07T10:36:19;10.20;;;5.60;;
36205;SDS011;22242;48.796;9.930;2022-12-07T10:38:48;10.10;;;6.32;;
36205;SDS011;22242;48.796;9.930;2022-12-07T10:41:17;10.23;;;6.47;;
36205;SDS011;22242;48.796;9.930;2022-12-07T10:43:50;9.82;;;6.72;;
36205;SDS011;22242;48.796;9.930;2022-12-07T10:49:31;11.07;;;6.68;;
36205;SDS011;22242;48.796;9.930;2022-12-07T10:52:18;12.68;;;7.72;;
36205;SDS011;22242;48.796;9.930;2022-12-07T10:55:03;37.17;;;18.30;;
36205;SDS011;22242;48.796;9.930;2022-12-07T10:57:42;43.33;;;20.00;;
36205;SDS011;22242;48.796;9.930;2022-12-07T11:00:24;13.57;;;8.23;;
36205;SDS011;22242;48.796;9.930;2022-12-07T11:02:55;10.30;;;6.70;;
36205;SDS011;22242;48.796;9.930;2022-12-07T11:05:39;10.05;;;6.20;;
36205;SDS011;22242;48.796;9.930;2022-12-07T11:08:13;10.68;;;6.75;;
36205;SDS011;22242;48.796;9.930;2022-12-07T11:10:48;9.95;;;6.32;;
36205;SDS011;22242;48.796;9.930;2022-12-07T11:13:24;10.52;;;5.95;;
36205;SDS011;22242;48.796;9.930;2022-12-07T11:16:01;8.75;;;6.53;;
36205;SDS011;22242;48.796;9.930;2022-12-07T11:18:44;9.80;;;6.72;;
36205;SDS011;22242;48.796;9.930;2022-12-07T11:21:20;9.15;;;5.97;;
36205;SDS011;22242;48.796;9.930;2022-12-07T11:23:55;10.02;;;5.65;;
36205;SDS011;22242;48.796;9.930;2022-12-07T11:26:32;7.32;;;5.82;;
36205;SDS011;22242;48.796;9.930;2022-12-07T11:29:18;9.85;;;6.75;;
36205;SDS011;22242;48.796;9.930;2022-12-07T11:31:59;8.43;;;5.50;;
36205;SDS011;22242;48.796;9.930;2022-12-07T11:34:34;8.40;;;6.10;;
36205;SDS011;22242;48.796;9.930;2022-12-07T11:37:06;8.45;;;6.22;;
36205;SDS011;22242;48.796;9.930;2022-12-07T11:39:39;8.98;;;5.55;;
36205;SDS011;22242;48.796;9.930;2022-12-07T11:42:12;10.55;;;6.97;;
36205;SDS011;22242;48.796;9.930;2022-12-07T11:44:45;11.68;;;6.25;;
36205;SDS011;22242;48.796;9.930;2022-12-07T11:47:22;13.43;;;6.28;;
36205;SDS011;22242;48.796;9.930;2022-12-07T11:49:54;9.82;;;6.15;;
36205;SDS011;22242;48.796;9.930;2022-12-07T11:52:25;9.48;;;6.22;;
36205;SDS011;22242;48.796;9.930;2022-12-07T11:54:57;12.77;;;6.65;;
36205;SDS011;22242;48.796;9.930;2022-12-07T11:57:26;11.52;;;6.70;;
36205;SDS011;22242;48.796;9.930;2022-12-07T12:00:00;9.23;;;6.13;;
36205;SDS011;22242;48.796;9.930;2022-12-07T12:02:33;11.30;;;6.93;;
36205;SDS011;22242;48.796;9.930;2022-12-07T12:05:05;11.10;;;6.55;;
36205;SDS011;22242;48.796;9.930;2022-12-07T12:07:41;8.30;;;6.18;;
36205;SDS011;22242;48.796;9.930;2022-12-07T12:10:14;11.30;;;6.75;;
36205;SDS011;22242;48.796;9.930;2022-12-07T12:12:54;12.05;;;6.18;;
36205;SDS011;22242;48.796;9.930;2022-12-07T12:15:44;15.23;;;7.65;;
36205;SDS011;22242;48.796;9.930;2022-12-07T12:21:14;10.50;;;6.65;;
36205;SDS011;22242;48.796;9.930;2022-12-07T12:23:44;11.65;;;7.18;;
36205;SDS011;22242;48.796;9.930;2022-12-07T12:26:15;19.50;;;8.80;;
36205;SDS011;22242;48.796;9.930;2022-12-07T12:28:49;44.45;;;15.55;;
36205;SDS011;22242;48.796;9.930;2022-12-07T12:31:30;50.15;;;17.88;;
36205;SDS011;22242;48.796;9.930;2022-12-07T12:36:56;15.88;;;8.13;;
36205;SDS011;22242;48.796;9.930;2022-12-07T12:39:23;14.13;;;7.72;;
36205;SDS011;22242;48.796;9.930;2022-12-07T12:41:51;13.93;;;6.97;;
36205;SDS011;22242;48.796;9.930;2022-12-07T12:44:41;14.02;;;7.45;;
36205;SDS011;22242;48.796;9.930;2022-12-07T12:47:51;12.63;;;7.03;;
36205;SDS011;22242;48.796;9.930;2022-12-07T12:50:27;14.27;;;7.22;;
36205;SDS011;22242;48.796;9.930;2022-12-07T12:53:00;15.90;;;7.45;;
36205;SDS011;22242;48.796;9.930;2022-12-07T12:58:48;17.25;;;7.55;;
36205;SDS011;22242;48.796;9.930;2022-12-07T13:01:37;11.15;;;7.15;;
36205;SDS011;22242;48.796;9.930;2022-12-07T13:07:04;10.90;;;6.20;;
36205;SDS011;22242;48.796;9.930;2022-12-07T13:09:34;11.23;;;6.28;;
36205;SDS011;22242;48.796;9.930;2022-12-07T13:12:03;9.35;;;6.13;;
36205;SDS011;22242;48.796;9.930;2022-12-07T13:14:53;11.98;;;7.22;;
36205;SDS011;22242;48.796;9.930;2022-12-07T13:20:40;11.38;;;6.57;;
36205;SDS011;22242;48.796;9.930;2022-12-07T13:23:18;18.07;;;9.20;;
36205;SDS011;22242;48.796;9.930;2022-12-07T13:26:00;13.38;;;8.13;;
36205;SDS011;22242;48.796;9.930;2022-12-07T13:28:40;11.60;;;5.93;;
36205;SDS011;22242;48.796;9.930;2022-12-07T13:31:11;9.75;;;6.00;;
36205;SDS011;22242;48.796;9.930;2022-12-07T13:33:46;8.85;;;5.75;;
36205;SDS011;22242;48.796;9.930;2022-12-07T13:36:18;11.55;;;6.00;;
36205;SDS011;22242;48.796;9.930;2022-12-07T13:38:50;9.13;;;6.35;;
36205;SDS011;22242;48.796;9.930;2022-12-07T13:41:20;18.23;;;5.38;;
36205;SDS011;22242;48.796;9.930;2022-12-07T13:43:49;9.10;;;6.05;;
36205;SDS011;22242;48.796;9.930;2022-12-07T13:46:19;8.70;;;6.00;;
36205;SDS011;22242;48.796;9.930;2022-12-07T13:48:51;9.57;;;5.90;;
36205;SDS011;22242;48.796;9.930;2022-12-07T13:51:21;8.68;;;5.95;;
36205;SDS011;22242;48.796;9.930;2022-12-07T13:53:53;9.73;;;6.25;;
36205;SDS011;22242;48.796;9.930;2022-12-07T13:56:22;10.15;;;5.70;;
36205;SDS011;22242;48.796;9.930;2022-12-07T13:58:52;9.10;;;5.88;;
36205;SDS011;22242;48.796;9.930;2022-12-07T14:01:19;11.15;;;6.50;;
36205;SDS011;22242;48.796;9.930;2022-12-07T14:03:46;10.00;;;6.40;;
36205;SDS011;22242;48.796;9.930;2022-12-07T14:06:14;9.40;;;6.32;;
36205;SDS011;22242;48.796;9.930;2022-12-07T14:08:45;13.32;;;6.57;;
36205;SDS011;22242;48.796;9.930;2022-12-07T14:11:17;8.38;;;5.90;;
36205;SDS011;22242;48.796;9.930;2022-12-07T14:13:56;11.18;;;7.22;;
36205;SDS011;22242;48.796;9.930;2022-12-07T14:16:27;12.20;;;6.32;;
36205;SDS011;22242;48.796;9.930;2022-12-07T14:18:56;10.23;;;6.47;;
36205;SDS011;22242;48.796;9.930;2022-12-07T14:21:24;10.45;;;6.45;;
36205;SDS011;22242;48.796;9.930;2022-12-07T14:24:04;11.30;;;6.82;;
36205;SDS011;22242;48.796;9.930;2022-12-07T14:26:42;14.32;;;6.97;;
36205;SDS011;22242;48.796;9.930;2022-12-07T14:29:20;10.32;;;6.32;;
36205;SDS011;22242;48.796;9.930;2022-12-07T14:31:58;13.07;;;6.97;;
36205;SDS011;22242;48.796;9.930;2022-12-07T14:34:40;10.63;;;6.90;;
36205;SDS011;22242;48.796;9.930;2022-12-07T14:37:07;9.60;;;6.35;;
36205;SDS011;22242;48.796;9.930;2022-12-07T14:39:35;13.05;;;7.03;;
36205;SDS011;22242;48.796;9.930;2022-12-07T14:42:04;13.35;;;7.72;;
36205;SDS011;22242;48.796;9.930;2022-12-07T14:44:30;11.70;;;7.32;;
36205;SDS011;22242;48.796;9.930;2022-12-07T14:46:57;12.63;;;7.03;;
36205;SDS011;22242;48.796;9.930;2022-12-07T14:49:24;11.63;;;6.82;;
36205;SDS011;22242;48.796;9.930;2022-12-07T14:51:51;12.70;;;7.53;;
36205;SDS011;22242;48.796;9.930;2022-12-07T14:54:19;13.30;;;7.03;;
36205;SDS011;22242;48.796;9.930;2022-12-07T14:56:49;10.63;;;7.25;;
36205;SDS011;22242;48.796;9.930;2022-12-07T14:59:18;10.75;;;6.55;;
36205;SDS011;22242;48.796;9.930;2022-12-07T15:01:45;12.80;;;7.03;;
36205;SDS011;22242;48.796;9.930;2022-12-07T15:04:12;11.70;;;7.00;;
36205;SDS011;22242;48.796;9.930;2022-12-07T15:06:38;13.07;;;7.63;;
36205;SDS011;22242;48.796;9.930;2022-12-07T15:09:08;13.82;;;7.72;;
36205;SDS011;22242;48.796;9.930;2022-12-07T15:11:36;12.65;;;7.60;;
36205;SDS011;22242;48.796;9.930;2022-12-07T15:14:03;12.68;;;6.55;;
36205;SDS011;22242;48.796;9.930;2022-12-07T15:16:39;9.13;;;6.60;;
36205;SDS011;22242;48.796;9.930;2022-12-07T15:19:10;13.23;;;7.22;;